createdAt,value
2022-10-29T00:00:40.128Z,17.47
2022-10-29T00:03:06.927Z,18.33
2022-10-29T00:05:33.763Z,17.47
2022-10-29T00:08:00.380Z,18.30
2022-10-29T00:10:27.587Z,21.20
2022-10-29T00:12:54.007Z,21.67
2022-10-29T00:15:20.524Z,20.00
2022-10-29T00:17:47.018Z,21.13
2022-10-29T00:20:13.443Z,19.67
2022-10-29T00:22:39.851Z,20.43
2022-10-29T00:25:06.543Z,23.40
2022-10-29T00:27:32.983Z,19.33
2022-10-29T00:29:59.438Z,20.77
2022-10-29T00:32:26.896Z,22.10
2022-10-29T00:34:53.321Z,16.60
2022-10-29T00:37:19.730Z,19.33
2022-10-29T00:39:46.136Z,16.30
2022-10-29T00:42:15.116Z,18.93
2022-10-29T00:44:41.632Z,18.63
2022-10-29T00:47:19.137Z,16.70
2022-10-29T00:49:51.606Z,15.07
2022-10-29T00:52:19.679Z,20.83
2022-10-29T00:54:47.679Z,18.43
2022-10-29T00:57:21.919Z,19.33
2022-10-29T01:02:21.841Z,16.77
2022-10-29T01:04:48.856Z,20.90
2022-10-29T01:07:15.349Z,19.03
2022-10-29T01:09:42.220Z,14.33
2022-10-29T01:12:33.842Z,19.03
2022-10-29T01:15:06.779Z,21.07
2022-10-29T01:17:37.776Z,17.00
2022-10-29T01:20:09.924Z,14.47
2022-10-29T01:22:44.061Z,15.20
2022-10-29T01:25:28.803Z,19.37
2022-10-29T01:28:13.974Z,16.47
2022-10-29T01:30:58.336Z,25.10
2022-10-29T01:33:37.140Z,20.20
2022-10-29T01:36:44.743Z,22.97
2022-10-29T01:39:35.896Z,17.87
2022-10-29T01:42:23.408Z,15.57
2022-10-29T01:45:23.673Z,21.20
2022-10-29T01:47:56.344Z,17.83
2022-10-29T01:50:23.705Z,15.87
2022-10-29T01:52:51.248Z,18.83
2022-10-29T01:55:23.288Z,14.97
2022-10-29T01:57:49.694Z,16.43
2022-10-29T02:00:18.445Z,17.97
2022-10-29T02:03:05.747Z,18.97
2022-10-29T02:05:35.666Z,15.57
2022-10-29T02:08:04.510Z,21.07
2022-10-29T02:10:39.721Z,17.37
2022-10-29T02:13:06.854Z,19.13
2022-10-29T02:15:42.890Z,21.67
2022-10-29T02:18:09.507Z,18.80
2022-10-29T02:20:41.477Z,20.07
2022-10-29T02:23:08.024Z,18.40
2022-10-29T02:25:34.634Z,14.03
2022-10-29T02:28:01.199Z,20.00
2022-10-29T02:30:27.877Z,18.67
2022-10-29T02:32:54.667Z,19.47
2022-10-29T02:35:21.459Z,20.13
2022-10-29T02:37:48.731Z,16.63
2022-10-29T02:40:15.183Z,19.23
2022-10-29T02:42:41.612Z,19.00
2022-10-29T02:45:08.362Z,17.30
2022-10-29T02:47:34.838Z,15.27
2022-10-29T02:50:01.273Z,19.87
2022-10-29T02:52:27.784Z,17.73
2022-10-29T02:54:54.292Z,19.90
2022-10-29T02:57:20.734Z,16.90
2022-10-29T02:59:47.141Z,22.93
2022-10-29T03:02:13.854Z,20.67
2022-10-29T03:04:41.554Z,15.20
2022-10-29T03:07:07.988Z,23.57
2022-10-29T03:09:34.472Z,21.23
2022-10-29T03:12:01.083Z,19.10
2022-10-29T03:14:27.683Z,15.83
2022-10-29T03:16:54.171Z,17.67
2022-10-29T03:19:20.578Z,16.50
2022-10-29T03:21:47.008Z,16.90
2022-10-29T03:24:13.408Z,17.53
2022-10-29T03:26:39.871Z,13.83
2022-10-29T03:29:06.386Z,18.63
2022-10-29T03:31:32.947Z,20.00
2022-10-29T03:33:59.589Z,16.67
2022-10-29T03:36:26.328Z,15.47
2022-10-29T03:38:52.896Z,14.87
2022-10-29T03:41:19.449Z,23.27
2022-10-29T03:43:45.984Z,19.20
2022-10-29T03:46:12.452Z,19.33
2022-10-29T03:48:39.100Z,14.53
2022-10-29T03:51:06.534Z,16.33
2022-10-29T03:53:34.439Z,18.10
2022-10-29T03:56:01.330Z,20.60
2022-10-29T03:58:27.877Z,21.17
2022-10-29T04:01:02.344Z,18.47
2022-10-29T04:03:29.722Z,15.43
2022-10-29T04:05:57.905Z,16.67
2022-10-29T04:08:25.307Z,15.13
2022-10-29T04:10:52.287Z,17.67
2022-10-29T04:13:19.047Z,19.53
2022-10-29T04:15:45.929Z,17.10
2022-10-29T04:18:12.709Z,20.37
2022-10-29T04:21:23.074Z,19.30
2022-10-29T04:29:00.258Z,14.70
2022-10-29T04:31:27.093Z,18.43
2022-10-29T04:33:53.908Z,16.13
2022-10-29T04:36:20.551Z,13.23
2022-10-29T04:38:47.059Z,16.17
2022-10-29T04:41:13.545Z,21.20
2022-10-29T04:43:40.058Z,17.47
2022-10-29T04:46:06.526Z,17.07
2022-10-29T04:48:33.117Z,17.17
2022-10-29T04:50:59.588Z,13.70
2022-10-29T04:53:26.630Z,14.60
2022-10-29T04:55:59.280Z,16.53
2022-10-29T04:58:26.757Z,13.80
2022-10-29T05:00:53.214Z,16.80
2022-10-29T05:03:19.696Z,17.37
2022-10-29T05:05:46.129Z,16.80
2022-10-29T05:08:12.838Z,14.47
2022-10-29T05:10:40.075Z,15.03
2022-10-29T05:13:10.236Z,20.97
2022-10-29T05:15:37.415Z,17.13
2022-10-29T05:18:04.277Z,18.70
2022-10-29T05:20:30.811Z,11.40
2022-10-29T05:23:05.783Z,19.10
2022-10-29T05:25:33.777Z,18.47
2022-10-29T05:28:03.820Z,12.67
2022-10-29T05:30:30.534Z,18.07
2022-10-29T05:32:57.321Z,20.27
2022-10-29T05:35:25.587Z,14.90
2022-10-29T05:37:56.222Z,17.17
2022-10-29T05:40:23.632Z,18.80
2022-10-29T05:42:50.344Z,14.67
2022-10-29T05:45:17.002Z,19.73
2022-10-29T05:47:43.694Z,16.93
2022-10-29T05:50:10.785Z,11.43
2022-10-29T05:52:37.602Z,17.10
2022-10-29T05:55:04.883Z,19.40
2022-10-29T05:57:31.543Z,17.57
2022-10-29T05:59:58.197Z,13.37
2022-10-29T06:02:26.154Z,20.30
2022-10-29T06:04:52.706Z,13.27
2022-10-29T06:07:19.262Z,14.63
2022-10-29T06:09:45.740Z,14.33
2022-10-29T06:12:12.215Z,17.00
2022-10-29T06:14:39.007Z,16.73
2022-10-29T06:17:05.662Z,14.37
2022-10-29T06:19:32.119Z,16.90
2022-10-29T06:22:00.413Z,17.80
2022-10-29T06:24:27.575Z,15.57
2022-10-29T06:26:54.727Z,10.80
2022-10-29T06:29:21.207Z,15.47
2022-10-29T06:31:47.807Z,13.03
2022-10-29T06:34:14.906Z,16.37
2022-10-29T06:36:41.422Z,20.07
2022-10-29T06:39:07.875Z,18.17
2022-10-29T06:41:34.462Z,16.00
2022-10-29T06:44:01.037Z,15.50
2022-10-29T06:46:27.670Z,17.33
2022-10-29T06:48:54.197Z,18.20
2022-10-29T06:51:20.785Z,20.27
2022-10-29T06:53:47.439Z,15.53
2022-10-29T06:56:14.093Z,20.00
2022-10-29T06:58:40.553Z,14.83
2022-10-29T07:01:07.286Z,15.77
2022-10-29T07:03:33.885Z,19.50
2022-10-29T07:06:00.638Z,16.90
2022-10-29T07:08:28.295Z,13.07
2022-10-29T07:10:55.231Z,18.50
2022-10-29T07:13:21.691Z,12.60
2022-10-29T07:15:48.587Z,15.47
2022-10-29T07:18:16.000Z,15.63
2022-10-29T07:20:44.655Z,21.03
2022-10-29T07:23:12.439Z,17.43
2022-10-29T07:25:40.208Z,18.83
2022-10-29T07:28:11.871Z,23.03
2022-10-29T07:30:39.124Z,15.13
2022-10-29T07:33:05.705Z,14.13
2022-10-29T07:35:33.444Z,17.03
2022-10-29T07:38:05.325Z,17.00
2022-10-29T07:40:37.990Z,14.50
2022-10-29T07:43:04.892Z,16.97
2022-10-29T07:45:32.070Z,17.47
2022-10-29T07:48:02.785Z,19.47
2022-10-29T07:50:30.915Z,16.97
2022-10-29T07:53:00.419Z,16.20
2022-10-29T07:58:01.426Z,13.87
2022-10-29T08:00:29.412Z,14.40
2022-10-29T08:02:56.692Z,14.93
2022-10-29T08:05:25.679Z,16.30
2022-10-29T08:07:56.196Z,18.97
2022-10-29T08:10:27.400Z,15.03
2022-10-29T08:12:56.535Z,14.97
2022-10-29T08:15:26.949Z,16.80
2022-10-29T08:17:53.706Z,14.00
2022-10-29T08:20:21.352Z,15.27
2022-10-29T08:22:47.966Z,14.83
2022-10-29T08:25:14.940Z,18.63
2022-10-29T08:27:41.944Z,17.60
2022-10-29T08:30:10.908Z,17.20
2022-10-29T08:32:38.090Z,16.63
2022-10-29T08:35:05.305Z,16.57
2022-10-29T08:37:31.797Z,18.03
2022-10-29T08:39:58.350Z,15.53
2022-10-29T08:42:32.049Z,16.90
2022-10-29T08:45:44.477Z,17.10
2022-10-29T08:48:35.948Z,15.17
2022-10-29T08:51:10.520Z,19.53
2022-10-29T08:53:40.999Z,17.40
2022-10-29T08:56:13.099Z,13.40
2022-10-29T08:58:55.398Z,16.00
2022-10-29T09:01:23.094Z,18.43
2022-10-29T09:03:50.931Z,19.57
2022-10-29T09:06:53.465Z,19.63
2022-10-29T09:09:39.830Z,17.87
2022-10-29T09:12:24.001Z,19.77
2022-10-29T09:15:17.915Z,17.23
2022-10-29T09:17:53.402Z,22.40
2022-10-29T09:20:38.872Z,32.93
2022-10-29T09:23:40.482Z,22.13
2022-10-29T09:26:17.986Z,23.33
2022-10-29T09:28:53.341Z,26.57
2022-10-29T09:31:37.791Z,20.40
2022-10-29T09:34:12.451Z,24.53
2022-10-29T09:36:39.563Z,24.23
2022-10-29T09:39:14.758Z,19.93
2022-10-29T09:41:41.385Z,24.03
2022-10-29T09:44:19.239Z,26.30
2022-10-29T09:47:17.097Z,18.43
2022-10-29T09:50:07.254Z,24.83
2022-10-29T09:52:42.594Z,30.30
2022-10-29T09:55:36.084Z,29.07
2022-10-29T09:58:02.499Z,24.50
2022-10-29T10:00:30.809Z,27.10
2022-10-29T10:03:02.355Z,26.13
2022-10-29T10:05:31.876Z,22.67
2022-10-29T10:08:12.735Z,28.50
2022-10-29T10:11:01.991Z,26.70
2022-10-29T10:13:33.447Z,24.63
2022-10-29T10:16:01.640Z,24.33
2022-10-29T10:18:40.563Z,26.47
2022-10-29T10:21:11.186Z,31.33
2022-10-29T10:23:54.282Z,31.77
2022-10-29T10:26:36.521Z,27.23
2022-10-29T10:29:19.095Z,27.23
2022-10-29T10:31:46.613Z,28.40
2022-10-29T10:34:19.198Z,35.00
2022-10-29T10:36:55.675Z,31.07
2022-10-29T10:39:26.710Z,37.13
2022-10-29T10:41:53.621Z,35.67
2022-10-29T10:44:20.962Z,37.43
2022-10-29T10:46:49.404Z,34.10
2022-10-29T10:49:22.746Z,33.63
2022-10-29T10:51:51.422Z,31.30
2022-10-29T10:54:44.723Z,33.47
2022-10-29T10:57:11.291Z,36.10
2022-10-29T10:59:49.665Z,32.77
2022-10-29T11:02:49.026Z,33.53
2022-10-29T11:05:21.211Z,37.70
2022-10-29T11:08:06.297Z,30.97
2022-10-29T11:10:54.475Z,35.53
2022-10-29T11:13:24.391Z,31.70
2022-10-29T11:16:16.720Z,29.40
2022-10-29T11:18:52.229Z,29.50
2022-10-29T11:21:26.728Z,36.00
2022-10-29T11:24:06.925Z,33.90
2022-10-29T11:26:41.262Z,27.00
2022-10-29T11:29:29.597Z,30.17
2022-10-29T11:32:00.715Z,29.20
2022-10-29T11:34:32.314Z,34.53
2022-10-29T11:37:04.000Z,35.27
2022-10-29T11:39:41.606Z,29.17
2022-10-29T11:42:09.821Z,33.37
2022-10-29T11:44:39.129Z,32.20
2022-10-29T11:47:13.562Z,28.63
2022-10-29T11:49:59.442Z,27.47
2022-10-29T11:52:33.274Z,24.53
2022-10-29T11:55:14.927Z,28.43
2022-10-29T11:57:53.219Z,28.63
2022-10-29T12:00:21.469Z,23.57
2022-10-29T12:03:06.921Z,29.47
2022-10-29T12:05:41.375Z,24.27
2022-10-29T12:08:29.842Z,27.13
2022-10-29T12:11:11.067Z,26.50
2022-10-29T12:13:55.988Z,25.53
2022-10-29T12:16:36.582Z,30.10
2022-10-29T12:19:26.983Z,19.83
2022-10-29T12:21:55.190Z,30.87
2022-10-29T12:24:41.054Z,24.60
2022-10-29T12:27:17.366Z,32.23
2022-10-29T12:30:04.036Z,21.20
2022-10-29T12:32:52.002Z,23.87
2022-10-29T12:35:28.908Z,21.27
2022-10-29T12:38:35.335Z,24.67
2022-10-29T12:41:21.782Z,27.30
2022-10-29T12:43:48.450Z,26.53
2022-10-29T12:46:25.144Z,24.07
2022-10-29T12:49:12.391Z,18.83
2022-10-29T12:54:38.901Z,22.37
2022-10-29T12:57:19.137Z,18.57
2022-10-29T12:59:45.869Z,17.83
2022-10-29T13:02:25.601Z,17.57
2022-10-29T13:05:07.241Z,17.77
2022-10-29T13:07:34.411Z,17.80
2022-10-29T13:10:22.493Z,14.47
2022-10-29T13:13:19.540Z,17.80
2022-10-29T13:16:00.729Z,13.23
2022-10-29T13:18:41.703Z,18.63
2022-10-29T13:21:08.534Z,12.33
2022-10-29T13:23:37.645Z,22.23
2022-10-29T13:26:05.841Z,16.17
2022-10-29T13:28:38.225Z,13.90
2022-10-29T13:31:04.537Z,19.77
2022-10-29T13:33:30.975Z,15.87
2022-10-29T13:36:05.344Z,14.73
2022-10-29T13:39:04.572Z,20.20
2022-10-29T13:41:42.368Z,19.20
2022-10-29T13:44:23.049Z,16.07
2022-10-29T13:47:03.132Z,15.60
2022-10-29T13:49:31.827Z,25.50
2022-10-29T13:51:58.470Z,13.40
2022-10-29T13:54:30.531Z,14.57
2022-10-29T13:57:14.521Z,14.30
2022-10-29T14:00:00.368Z,18.63
2022-10-29T14:02:54.035Z,15.30
2022-10-29T14:05:23.577Z,17.10
2022-10-29T14:07:57.476Z,16.23
2022-10-29T14:10:33.103Z,12.87
2022-10-29T14:13:30.215Z,22.70
2022-10-29T14:16:05.711Z,17.40
2022-10-29T14:18:37.040Z,17.70
2022-10-29T14:21:13.383Z,19.83
2022-10-29T14:23:41.067Z,18.77
2022-10-29T14:26:17.370Z,22.33
2022-10-29T14:28:43.865Z,21.43
2022-10-29T14:31:19.630Z,20.73
2022-10-29T14:33:58.657Z,23.53
2022-10-29T14:36:39.726Z,20.67
2022-10-29T14:39:56.937Z,23.70
2022-10-29T14:42:31.956Z,23.23
2022-10-29T14:45:05.753Z,18.83
2022-10-29T14:47:33.930Z,19.77
2022-10-29T14:50:03.630Z,25.60
2022-10-29T14:52:34.527Z,22.13
2022-10-29T14:55:09.620Z,22.07
2022-10-29T14:57:41.678Z,21.70
2022-10-29T15:00:08.833Z,31.23
2022-10-29T15:02:39.132Z,27.50
2022-10-29T15:05:23.759Z,23.67
2022-10-29T15:07:50.680Z,25.00
2022-10-29T15:10:22.032Z,21.60
2022-10-29T15:12:49.764Z,29.70
2022-10-29T15:15:18.841Z,22.13
2022-10-29T15:17:56.125Z,21.77
2022-10-29T15:20:46.327Z,25.30
2022-10-29T15:23:28.583Z,25.03
2022-10-29T15:26:00.662Z,22.40
2022-10-29T15:28:29.699Z,32.27
2022-10-29T15:30:56.342Z,30.67
2022-10-29T15:33:27.385Z,31.60
2022-10-29T15:35:57.025Z,35.97
2022-10-29T15:38:35.459Z,26.67
2022-10-29T15:41:35.033Z,23.60
2022-10-29T15:44:01.472Z,29.00
2022-10-29T15:46:35.612Z,38.30
2022-10-29T15:49:02.041Z,26.07
2022-10-29T15:51:29.655Z,25.90
2022-10-29T15:53:57.831Z,30.67
2022-10-29T15:56:25.538Z,28.23
2022-10-29T15:58:52.875Z,39.43
2022-10-29T16:01:19.490Z,25.60
2022-10-29T16:03:46.139Z,33.13
2022-10-29T16:06:12.816Z,26.80
2022-10-29T16:08:42.121Z,27.43
2022-10-29T16:11:12.862Z,33.33
2022-10-29T16:13:39.476Z,28.67
2022-10-29T16:16:07.085Z,32.03
2022-10-29T16:18:33.667Z,31.70
2022-10-29T16:21:02.065Z,31.10
2022-10-29T16:23:28.674Z,25.30
2022-10-29T16:25:55.428Z,27.63
2022-10-29T16:28:22.103Z,26.87
2022-10-29T16:30:53.602Z,27.97
2022-10-29T16:33:20.277Z,25.27
2022-10-29T16:35:46.882Z,31.73
2022-10-29T16:38:13.562Z,32.20
2022-10-29T16:40:39.993Z,29.10
2022-10-29T16:43:06.658Z,29.33
2022-10-29T16:45:33.151Z,30.70
2022-10-29T16:48:00.002Z,34.90
2022-10-29T16:50:29.408Z,33.67
2022-10-29T16:52:57.544Z,27.37
2022-10-29T16:55:25.432Z,34.30
2022-10-29T16:57:52.712Z,29.27
2022-10-29T17:00:19.240Z,37.17
2022-10-29T17:02:45.743Z,32.93
2022-10-29T17:05:12.838Z,34.13
2022-10-29T17:07:39.582Z,36.27
2022-10-29T17:10:06.712Z,35.43
2022-10-29T17:12:33.694Z,30.70
2022-10-29T17:15:00.287Z,35.37
2022-10-29T17:17:27.136Z,38.63
2022-10-29T17:19:53.752Z,43.10
2022-10-29T17:22:20.492Z,42.30
2022-10-29T17:24:47.074Z,51.10
2022-10-29T17:27:13.804Z,46.37
2022-10-29T17:29:40.656Z,37.53
2022-10-29T17:32:08.412Z,39.27
2022-10-29T17:34:35.208Z,36.47
2022-10-29T17:37:01.691Z,35.30
2022-10-29T17:39:28.326Z,36.70
2022-10-29T17:41:55.211Z,32.30
2022-10-29T17:44:21.798Z,32.47
2022-10-29T17:46:48.254Z,39.87
2022-10-29T17:49:14.907Z,33.57
2022-10-29T17:51:41.343Z,35.17
2022-10-29T17:54:07.934Z,31.47
2022-10-29T17:56:34.753Z,38.23
2022-10-29T17:59:01.678Z,37.77
2022-10-29T18:01:28.349Z,31.57
2022-10-29T18:03:55.337Z,41.03
2022-10-29T18:06:21.942Z,38.13
2022-10-29T18:08:48.515Z,31.23
2022-10-29T18:11:18.574Z,39.47
2022-10-29T18:13:46.469Z,30.50
2022-10-29T18:16:15.039Z,35.83
2022-10-29T18:18:54.765Z,35.67
2022-10-29T18:21:29.236Z,33.90
2022-10-29T18:23:55.921Z,41.87
2022-10-29T18:26:24.378Z,39.00
2022-10-29T18:28:52.886Z,32.70
2022-10-29T18:31:19.635Z,35.90
2022-10-29T18:33:46.735Z,36.67
2022-10-29T18:36:13.865Z,31.73
2022-10-29T18:38:40.616Z,32.97
2022-10-29T18:41:07.527Z,33.23
2022-10-29T18:43:38.443Z,32.17
2022-10-29T18:46:07.061Z,30.33
2022-10-29T18:48:41.332Z,34.53
2022-10-29T18:51:16.786Z,27.80
2022-10-29T18:53:43.495Z,34.77
2022-10-29T18:56:13.507Z,37.97
2022-10-29T18:58:40.218Z,27.57
2022-10-29T19:01:09.524Z,30.40
2022-10-29T19:03:38.161Z,35.87
2022-10-29T19:06:07.113Z,28.77
2022-10-29T19:08:44.123Z,34.27
2022-10-29T19:11:16.359Z,34.10
2022-10-29T19:13:43.256Z,39.60
2022-10-29T19:16:13.704Z,33.30
2022-10-29T19:18:41.672Z,28.97
2022-10-29T19:21:10.758Z,31.20
2022-10-29T19:23:38.423Z,31.17
2022-10-29T19:26:10.826Z,32.27
2022-10-29T19:28:40.490Z,33.10
2022-10-29T19:31:12.509Z,26.03
2022-10-29T19:33:41.076Z,24.93
2022-10-29T19:36:08.962Z,28.80
2022-10-29T19:38:36.108Z,27.17
2022-10-29T19:41:03.311Z,25.07
2022-10-29T19:43:30.292Z,25.67
2022-10-29T19:45:57.328Z,22.23
2022-10-29T19:48:25.643Z,22.57
2022-10-29T19:50:56.547Z,22.23
2022-10-29T19:53:24.967Z,26.90
2022-10-29T19:55:54.735Z,25.77
2022-10-29T19:58:23.425Z,24.33
2022-10-29T20:00:50.067Z,29.63
2022-10-29T20:03:17.731Z,28.17
2022-10-29T20:05:45.008Z,28.87
2022-10-29T20:08:15.791Z,35.60
2022-10-29T20:10:43.056Z,32.23
2022-10-29T20:13:09.474Z,37.53
2022-10-29T20:15:39.311Z,35.77
2022-10-29T20:18:06.090Z,33.13
2022-10-29T20:20:32.600Z,32.70
2022-10-29T20:23:00.312Z,31.97
2022-10-29T20:25:27.586Z,33.47
2022-10-29T20:27:54.198Z,39.80
2022-10-29T20:30:21.107Z,29.83
2022-10-29T20:32:48.217Z,37.27
2022-10-29T20:35:17.977Z,33.07
2022-10-29T20:37:44.614Z,35.13
2022-10-29T20:40:11.920Z,31.60
2022-10-29T20:42:38.474Z,29.80
2022-10-29T20:45:06.030Z,40.80
2022-10-29T20:47:32.563Z,35.73
2022-10-29T20:49:58.974Z,34.33
2022-10-29T20:52:27.406Z,37.13
2022-10-29T20:54:54.098Z,38.67
2022-10-29T20:57:20.620Z,41.23
2022-10-29T20:59:47.130Z,42.37
2022-10-29T21:02:13.757Z,41.23
2022-10-29T21:04:40.397Z,41.27
2022-10-29T21:07:07.781Z,42.07
2022-10-29T21:09:34.356Z,42.40
2022-10-29T21:12:00.912Z,39.00
2022-10-29T21:14:28.184Z,42.90
2022-10-29T21:16:54.602Z,49.33
2022-10-29T21:19:22.769Z,48.73
2022-10-29T21:21:49.345Z,46.47
2022-10-29T21:24:16.545Z,51.37
2022-10-29T21:26:42.979Z,46.30
2022-10-29T21:29:09.611Z,46.20
2022-10-29T21:31:36.221Z,45.33
2022-10-29T21:34:02.728Z,53.13
2022-10-29T21:36:29.186Z,51.60
2022-10-29T21:38:55.898Z,51.57
2022-10-29T21:41:22.409Z,46.83
2022-10-29T21:43:53.166Z,46.27
2022-10-29T21:46:19.588Z,49.00
2022-10-29T21:48:46.048Z,47.30
2022-10-29T21:51:14.763Z,46.50
2022-10-29T21:53:41.392Z,49.43
2022-10-29T21:56:10.496Z,49.20
2022-10-29T21:58:37.053Z,52.43
2022-10-29T22:01:16.317Z,48.97
2022-10-29T22:03:44.702Z,53.37
2022-10-29T22:06:13.198Z,51.47
2022-10-29T22:08:40.495Z,52.83
2022-10-29T22:11:07.251Z,45.87
2022-10-29T22:13:34.491Z,54.20
2022-10-29T22:16:01.949Z,51.57
2022-10-29T22:18:28.671Z,55.83
2022-10-29T22:21:16.050Z,50.50
2022-10-29T22:23:47.533Z,57.53
2022-10-29T22:26:15.731Z,61.23
2022-10-29T22:28:42.558Z,59.07
2022-10-29T22:31:09.912Z,53.93
2022-10-29T22:33:36.632Z,58.43
2022-10-29T22:36:05.233Z,56.83
2022-10-29T22:38:31.793Z,62.53
2022-10-29T22:40:58.577Z,69.27
2022-10-29T22:43:25.398Z,62.20
2022-10-29T22:45:51.839Z,68.00
2022-10-29T22:48:18.575Z,66.73
2022-10-29T22:50:45.042Z,66.47
2022-10-29T22:53:11.584Z,73.70
2022-10-29T22:55:38.284Z,65.60
2022-10-29T22:58:04.707Z,61.33
2022-10-29T23:00:31.163Z,63.93
2022-10-29T23:02:57.879Z,64.03
2022-10-29T23:05:25.172Z,63.43
2022-10-29T23:07:51.648Z,63.33
2022-10-29T23:10:18.156Z,60.60
2022-10-29T23:12:44.591Z,57.47
2022-10-29T23:15:11.072Z,59.63
2022-10-29T23:17:37.604Z,61.67
2022-10-29T23:20:04.455Z,65.40
2022-10-29T23:22:30.988Z,64.00
2022-10-29T23:24:57.445Z,74.20
2022-10-29T23:27:23.935Z,62.53
2022-10-29T23:29:51.440Z,65.47
2022-10-29T23:32:17.871Z,64.87
2022-10-29T23:34:44.394Z,65.20
2022-10-29T23:37:10.834Z,66.37
2022-10-29T23:39:37.377Z,68.70
2022-10-29T23:42:03.890Z,63.07
2022-10-29T23:44:30.320Z,63.90
2022-10-29T23:46:56.799Z,70.67
2022-10-29T23:49:23.464Z,56.97
2022-10-29T23:51:49.899Z,71.63
2022-10-29T23:54:16.311Z,65.40
2022-10-29T23:56:42.884Z,59.77
2022-10-29T23:59:09.340Z,63.13
